Time;durP1;ratioP1;P1;durP2;ratioP2;P2;SDS_P1;SDS_P2;PMS_P1;PMS_P2;Temp;Humidity;BMP_temperature;BMP_pressure;BME280_temperature;BME280_humidity;BME280_pressure;Samples;Min_cycle;Max_cycle;Signal;HPM_P1;HPM_P2
2023/07/14 00:01:29;;;;;;;17.52;12.15;;;16.80;99.90;;;;;;5091473;28;20502;-85
2023/07/14 00:03:56;;;;;;;18.80;12.77;;;16.70;99.90;;;;;;5091884;28;20042;-84
2023/07/14 00:06:21;;;;;;;16.95;13.65;;;16.70;99.90;;;;;;5091981;28;20077;-84
2023/07/14 00:08:47;;;;;;;16.92;12.80;;;16.70;99.90;;;;;;5091685;28;20036;-84
2023/07/14 00:11:17;;;;;;;15.35;12.18;;;16.70;99.90;;;;;;5074853;28;20541;-84
2023/07/14 00:13:43;;;;;;;15.60;11.80;;;16.70;99.90;;;;;;5074225;28;20441;-83
2023/07/14 00:16:13;;;;;;;14.75;12.70;;;16.70;99.90;;;;;;5091517;28;20036;-83
2023/07/14 00:18:38;;;;;;;13.15;11.38;;;16.70;99.90;;;;;;5091618;28;20094;-84
2023/07/14 00:21:04;;;;;;;14.27;11.95;;;16.70;99.90;;;;;;5091156;28;20036;-84
2023/07/14 00:23:30;;;;;;;16.23;13.30;;;16.60;99.90;;;;;;5074094;28;20044;-83
2023/07/14 00:25:55;;;;;;;14.55;12.07;;;16.60;99.90;;;;;;5091689;28;20074;-83
2023/07/14 00:28:21;;;;;;;14.10;8.07;;;16.60;99.90;;;;;;5074218;28;20512;-83
2023/07/14 00:30:48;;;;;;;19.05;12.60;;;16.50;99.90;;;;;;5073964;28;20172;-83
2023/07/14 00:33:18;;;;;;;15.90;12.10;;;16.50;99.90;;;;;;5090634;28;20051;-84
2023/07/14 00:35:45;;;;;;;14.45;11.50;;;16.50;99.90;;;;;;5091456;28;20040;-85
2023/07/14 00:38:11;;;;;;;14.60;8.63;;;16.50;99.90;;;;;;5074242;28;20097;-84
2023/07/14 00:40:40;;;;;;;13.15;11.75;;;16.40;99.90;;;;;;5074361;28;20043;-83
2023/07/14 00:43:18;;;;;;;15.05;11.98;;;16.40;99.90;;;;;;5090229;28;20040;-83
2023/07/14 00:45:47;;;;;;;12.93;11.52;;;16.40;99.90;;;;;;5091474;28;20028;-83
2023/07/14 00:48:18;;;;;;;11.48;7.28;;;16.40;99.90;;;;;;5075110;28;20028;-84
2023/07/14 00:51:01;;;;;;;12.27;8.18;;;16.40;99.90;;;;;;5075000;28;20131;-82
2023/07/14 00:53:29;;;;;;;;;;;16.30;99.90;;;;;;5100363;28;20040;-84
2023/07/14 00:56:10;;;;;;;16.70;11.43;;;16.10;99.90;;;;;;5092116;28;19938;-84
2023/07/14 00:58:37;;;;;;;15.52;12.00;;;16.20;99.90;;;;;;5092093;28;20130;-84
2023/07/14 01:01:21;;;;;;;13.00;10.73;;;16.30;99.90;;;;;;5074901;28;20074;-84
2023/07/14 01:03:57;;;;;;;12.18;7.88;;;16.30;99.90;;;;;;5091366;28;20048;-84
2023/07/14 01:06:23;;;;;;;14.18;11.45;;;16.20;99.90;;;;;;5091105;28;20036;-85
2023/07/14 01:08:57;;;;;;;14.02;11.70;;;16.20;99.90;;;;;;5090584;28;20043;-84
2023/07/14 01:11:29;;;;;;;15.43;11.85;;;16.20;99.90;;;;;;5073102;28;20072;-84
2023/07/14 01:13:57;;;;;;;13.52;7.40;;;16.20;99.90;;;;;;5089836;28;20495;-84
2023/07/14 01:16:22;;;;;;;14.77;11.32;;;16.10;99.90;;;;;;5090575;28;20078;-84
2023/07/14 01:18:49;;;;;;;13.68;7.32;;;16.10;99.90;;;;;;5073574;28;20538;-84
2023/07/14 01:21:21;;;;;;;13.20;10.75;;;16.00;99.90;;;;;;5090538;28;20046;-84
2023/07/14 01:24:02;;;;;;;14.73;11.88;;;16.10;99.90;;;;;;5089994;28;20032;-84
2023/07/14 01:26:56;;;;;;;13.88;10.63;;;16.10;99.90;;;;;;5090286;28;20040;-85
2023/07/14 01:29:21;;;;;;;14.57;11.00;;;16.10;99.90;;;;;;5090008;28;20127;-84
2023/07/14 01:31:48;;;;;;;14.32;11.18;;;16.00;99.90;;;;;;5089715;28;20126;-84
2023/07/14 01:34:14;;;;;;;14.45;11.45;;;16.00;99.90;;;;;;5090142;28;20051;-84
2023/07/14 01:36:40;;;;;;;14.80;11.52;;;16.00;99.90;;;;;;5090283;28;20044;-84
2023/07/14 01:39:05;;;;;;;15.32;11.13;;;16.00;99.90;;;;;;5090221;28;20043;-84
2023/07/14 01:41:32;;;;;;;13.48;7.65;;;15.90;99.90;;;;;;5089869;28;20040;-84
2023/07/14 01:44:03;;;;;;;15.15;11.63;;;15.90;99.90;;;;;;5090064;28;20495;-84
2023/07/14 01:46:29;;;;;;;14.68;10.68;;;15.90;99.90;;;;;;5090008;28;20089;-84
2023/07/14 01:49:01;;;;;;;17.63;11.95;;;15.90;99.90;;;;;;5072819;28;20043;-84
2023/07/14 01:51:34;;;;;;;13.23;6.25;;;15.90;99.90;;;;;;5052769;28;20120;-84
2023/07/14 01:54:10;;;;;;;14.00;11.43;;;15.80;99.90;;;;;;5069545;28;20040;-84
2023/07/14 01:56:37;;;;;;;13.98;8.45;;;15.80;99.90;;;;;;5053279;28;20041;-84
2023/07/14 01:59:22;;;;;;;12.70;11.07;;;15.80;99.90;;;;;;5052903;28;20051;-84
2023/07/14 02:01:50;;;;;;;14.48;11.70;;;15.80;99.90;;;;;;5069327;28;20040;-84
2023/07/14 02:04:26;;;;;;;12.25;7.93;;;15.80;99.90;;;;;;5069692;28;20098;-84
2023/07/14 02:06:52;;;;;;;15.00;11.65;;;15.70;99.90;;;;;;5069840;28;20040;-84
2023/07/14 02:09:22;;;;;;;12.02;7.72;;;15.70;99.90;;;;;;5052821;28;20703;-84
2023/07/14 02:11:53;;;;;;;13.68;7.32;;;15.70;99.90;;;;;;5069029;28;20087;-84
2023/07/14 02:14:21;;;;;;;15.00;11.07;;;15.60;99.90;;;;;;5069514;28;20055;-84
2023/07/14 02:16:49;;;;;;;13.02;7.93;;;15.70;99.90;;;;;;5069702;28;20041;-84
2023/07/14 02:19:24;;;;;;;17.55;11.13;;;15.60;99.90;;;;;;5069819;28;20048;-84
2023/07/14 02:21:51;;;;;;;14.68;11.40;;;15.70;99.90;;;;;;5052526;28;20032;-84
2023/07/14 02:24:20;;;;;;;13.88;7.95;;;15.70;99.90;;;;;;5054101;28;20048;-84
2023/07/14 02:26:50;;;;;;;14.95;8.18;;;15.60;99.90;;;;;;5056652;28;20129;-84
2023/07/14 02:29:15;;;;;;;14.25;7.80;;;15.60;99.90;;;;;;5073238;28;20040;-84
2023/07/14 02:31:56;;;;;;;14.75;11.70;;;15.50;99.90;;;;;;5072988;28;20047;-84
2023/07/14 02:34:26;;;;;;;13.40;11.45;;;15.60;99.90;;;;;;5073134;28;20082;-84
2023/07/14 02:36:59;;;;;;;12.70;10.35;;;15.60;99.90;;;;;;5073332;28;20521;-84
2023/07/14 02:39:26;;;;;;;13.00;10.95;;;15.60;99.90;;;;;;5056487;28;20089;-84
2023/07/14 02:41:55;;;;;;;13.25;8.10;;;15.60;99.90;;;;;;5056147;28;20123;-84
2023/07/14 02:44:26;;;;;;;16.17;7.63;;;15.50;99.90;;;;;;5056378;28;20043;-84
2023/07/14 02:47:05;;;;;;;12.35;7.40;;;15.50;99.90;;;;;;5073048;28;20041;-84
2023/07/14 02:49:30;;;;;;;12.98;7.78;;;15.40;99.90;;;;;;5055922;28;20097;-84
2023/07/14 02:51:56;;;;;;;14.38;11.48;;;15.30;99.90;;;;;;5072438;28;20123;-84
2023/07/14 02:54:23;;;;;;;14.77;11.43;;;15.40;99.90;;;;;;5072762;28;20036;-84
2023/07/14 02:56:49;;;;;;;14.73;12.27;;;15.40;99.90;;;;;;5072791;28;20052;-84
2023/07/14 02:59:16;;;;;;;13.52;11.52;;;15.40;99.90;;;;;;5072826;28;20036;-84
2023/07/14 03:01:42;;;;;;;12.18;7.72;;;15.40;99.90;;;;;;5072645;28;20479;-84
2023/07/14 03:04:08;;;;;;;14.45;10.95;;;15.40;99.90;;;;;;5072860;28;20127;-84
2023/07/14 03:06:35;;;;;;;13.82;11.45;;;15.40;99.90;;;;;;5072935;28;20036;-84
2023/07/14 03:09:01;;;;;;;17.52;12.60;;;15.40;99.90;;;;;;5072649;28;20422;-84
2023/07/14 03:11:26;;;;;;;14.73;11.50;;;15.40;99.90;;;;;;5072216;28;20037;-84
2023/07/14 03:13:52;;;;;;;13.45;11.02;;;15.40;99.90;;;;;;5071788;28;20123;-83
2023/07/14 03:16:18;;;;;;;12.20;6.57;;;15.40;99.90;;;;;;5055552;28;20120;-84
2023/07/14 03:18:44;;;;;;;12.85;7.03;;;15.30;99.90;;;;;;5055829;28;20066;-84
2023/07/14 03:21:10;;;;;;;13.23;8.02;;;15.30;99.90;;;;;;5055542;28;20040;-84
2023/07/14 03:23:35;;;;;;;14.70;10.68;;;15.20;99.90;;;;;;5055277;28;20052;-84
2023/07/14 03:26:08;;;;;;;11.63;6.90;;;15.30;99.90;;;;;;5072258;28;20041;-84
2023/07/14 03:28:35;;;;;;;14.43;11.55;;;15.20;99.90;;;;;;5055213;28;20032;-84
2023/07/14 03:31:01;;;;;;;14.45;12.18;;;15.20;99.90;;;;;;5072028;28;20119;-84
2023/07/14 03:33:28;;;;;;;14.55;7.95;;;15.30;99.90;;;;;;5054868;28;20072;-84
2023/07/14 03:35:54;;;;;;;13.00;8.07;;;15.30;99.90;;;;;;5071551;28;20102;-84
2023/07/14 03:38:19;;;;;;;14.43;12.85;;;15.20;99.90;;;;;;5072343;28;20044;-84
2023/07/14 03:40:45;;;;;;;14.15;8.50;;;15.30;99.90;;;;;;5071993;28;20044;-84
2023/07/14 03:43:11;;;;;;;13.10;8.93;;;15.20;99.90;;;;;;5054377;28;20388;-84
2023/07/14 03:45:36;;;;;;;15.13;13.48;;;15.20;99.90;;;;;;5072002;28;20141;-85
2023/07/14 03:48:05;;;;;;;15.02;8.70;;;15.30;99.90;;;;;;5071763;28;20037;-85
2023/07/14 03:50:33;;;;;;;15.10;8.75;;;15.30;99.90;;;;;;5054658;28;20043;-85
2023/07/14 03:52:59;;;;;;;19.02;14.93;;;15.20;99.90;;;;;;5054413;28;20491;-85
2023/07/14 03:55:24;;;;;;;12.55;8.93;;;15.30;99.90;;;;;;5071861;28;20048;-85
2023/07/14 03:57:50;;;;;;;17.20;14.38;;;15.30;99.90;;;;;;5071774;28;20550;-85
2023/07/14 04:00:17;;;;;;;18.90;14.40;;;15.30;99.90;;;;;;5055129;28;20040;-85
2023/07/14 04:02:44;;;;;;;14.10;8.77;;;15.40;99.90;;;;;;5054484;28;20128;-85
2023/07/14 04:05:12;;;;;;;17.50;15.70;;;15.30;99.90;;;;;;5071659;28;20036;-84
2023/07/14 04:07:39;;;;;;;15.45;10.30;;;15.40;99.90;;;;;;5054939;28;20082;-85
2023/07/14 04:10:07;;;;;;;18.30;16.30;;;15.30;99.90;;;;;;5071158;28;20049;-85
2023/07/14 04:12:33;;;;;;;16.15;10.52;;;15.40;99.90;;;;;;5054203;28;20495;-85
2023/07/14 04:14:59;;;;;;;16.65;14.85;;;15.40;99.90;;;;;;5054418;28;20044;-85
2023/07/14 04:17:25;;;;;;;16.40;11.18;;;15.40;99.90;;;;;;5071610;28;20132;-85
2023/07/14 04:19:51;;;;;;;19.85;16.20;;;15.40;99.90;;;;;;5054716;28;20044;-85
2023/07/14 04:22:17;;;;;;;19.90;17.55;;;15.40;99.90;;;;;;5053978;28;20048;-84
2023/07/14 04:24:43;;;;;;;21.27;18.08;;;15.40;99.90;;;;;;5054793;28;20104;-85
2023/07/14 04:27:09;;;;;;;15.15;10.27;;;15.50;99.90;;;;;;5054395;28;20127;-84
2023/07/14 04:29:35;;;;;;;20.88;17.35;;;15.50;99.90;;;;;;5054362;28;20040;-84
2023/07/14 04:32:00;;;;;;;21.05;11.77;;;15.50;99.90;;;;;;5054001;28;20128;-85
2023/07/14 04:34:26;;;;;;;19.88;17.77;;;15.50;99.90;;;;;;5054355;28;20048;-85
2023/07/14 04:36:53;;;;;;;19.58;17.63;;;15.50;99.90;;;;;;5070757;28;20089;-84
2023/07/14 04:39:19;;;;;;;19.50;12.10;;;15.50;99.90;;;;;;5054204;28;20040;-84
2023/07/14 04:41:44;;;;;;;17.67;12.02;;;15.50;99.90;;;;;;5070162;28;20033;-85
2023/07/14 04:44:14;;;;;;;23.13;18.05;;;15.50;99.90;;;;;;5071073;28;20501;-85
2023/07/14 04:46:41;;;;;;;21.05;18.55;;;15.60;99.90;;;;;;5053480;28;20032;-85
2023/07/14 04:49:07;;;;;;;21.30;19.00;;;15.70;99.90;;;;;;5070278;28;20605;-85
2023/07/14 04:51:34;;;;;;;18.33;11.50;;;15.80;99.90;;;;;;5070141;28;20407;-85
2023/07/14 04:54:00;;;;;;;16.30;10.98;;;15.80;99.90;;;;;;5070071;28;20063;-85
2023/07/14 04:56:25;;;;;;;20.27;18.17;;;15.80;99.90;;;;;;5053726;28;20499;-84
2023/07/14 04:58:51;;;;;;;20.13;17.95;;;15.90;99.90;;;;;;5070803;28;20403;-85
2023/07/14 05:01:17;;;;;;;17.80;12.13;;;16.00;99.90;;;;;;5071583;28;20086;-85
2023/07/14 05:03:44;;;;;;;21.63;19.45;;;16.00;99.90;;;;;;5071113;28;20090;-85
2023/07/14 05:06:10;;;;;;;22.45;20.05;;;16.00;99.90;;;;;;5053459;28;20041;-84
2023/07/14 05:08:36;;;;;;;21.40;19.20;;;16.10;99.90;;;;;;5070354;28;20123;-84
2023/07/14 05:11:02;;;;;;;19.73;17.83;;;16.10;99.90;;;;;;5070003;28;20124;-84
2023/07/14 05:13:28;;;;;;;20.27;18.17;;;16.10;99.90;;;;;;5069267;28;20040;-84
2023/07/14 05:15:56;;;;;;;21.48;19.17;;;16.20;99.90;;;;;;5069769;28;20091;-84
2023/07/14 05:18:23;;;;;;;21.38;18.63;;;16.20;99.90;;;;;;5070275;28;20045;-84
2023/07/14 05:20:49;;;;;;;20.30;18.23;;;16.20;99.90;;;;;;5070250;28;20091;-85
2023/07/14 05:23:15;;;;;;;19.70;11.75;;;16.20;99.90;;;;;;5070877;28;20066;-84
2023/07/14 05:25:41;;;;;;;20.80;18.63;;;16.10;99.90;;;;;;5070423;28;20124;-84
2023/07/14 05:28:06;;;;;;;21.65;19.38;;;16.20;99.90;;;;;;5070304;28;20601;-84
2023/07/14 05:30:33;;;;;;;21.52;19.23;;;16.20;99.90;;;;;;5069935;28;20499;-84
2023/07/14 05:32:59;;;;;;;22.95;18.75;;;16.20;99.90;;;;;;5069265;28;20090;-85
2023/07/14 05:35:25;;;;;;;20.05;18.05;;;16.20;99.90;;;;;;5069601;28;20402;-84
2023/07/14 05:37:50;;;;;;;19.38;17.38;;;16.30;99.90;;;;;;5053263;28;20041;-84
2023/07/14 05:40:17;;;;;;;20.42;12.13;;;16.30;99.90;;;;;;5072562;28;20035;-84
2023/07/14 05:42:43;;;;;;;19.00;13.40;;;16.30;99.90;;;;;;5068820;28;20056;-84
2023/07/14 05:45:11;;;;;;;20.25;18.13;;;16.20;99.90;;;;;;5053453;28;20718;-84
2023/07/14 05:47:38;;;;;;;19.60;17.48;;;16.30;99.90;;;;;;5072595;28;20120;-84
2023/07/14 05:50:05;;;;;;;21.75;19.52;;;16.30;99.90;;;;;;5052953;28;20041;-84
2023/07/14 05:52:32;;;;;;;16.23;11.23;;;16.40;99.90;;;;;;5069042;28;20127;-85
2023/07/14 05:54:57;;;;;;;21.17;17.40;;;16.30;99.90;;;;;;5052751;28;20498;-84
2023/07/14 05:57:23;;;;;;;15.98;11.00;;;16.40;99.90;;;;;;5052977;28;20123;-84
2023/07/14 05:59:49;;;;;;;18.65;16.17;;;16.40;99.90;;;;;;5057402;28;20056;-84
2023/07/14 06:02:14;;;;;;;20.67;11.70;;;16.40;99.90;;;;;;5056859;28;20029;-84
2023/07/14 06:04:41;;;;;;;18.48;16.58;;;16.50;99.90;;;;;;5073867;28;20495;-84
2023/07/14 06:07:08;;;;;;;20.38;11.43;;;16.50;99.90;;;;;;5057078;28;20043;-84
2023/07/14 06:09:35;;;;;;;20.80;15.98;;;16.60;99.90;;;;;;5073808;28;20583;-84
2023/07/14 06:12:03;;;;;;;18.52;16.33;;;16.60;99.90;;;;;;5056700;28;20473;-84
2023/07/14 06:14:31;;;;;;;20.88;15.60;;;16.70;99.90;;;;;;5079383;28;20054;-84
2023/07/14 06:16:58;;;;;;;16.73;14.95;;;16.70;99.90;;;;;;5083913;28;20044;-84
2023/07/14 06:19:24;;;;;;;17.00;14.73;;;16.80;99.90;;;;;;5091359;28;20455;-85
2023/07/14 06:21:50;;;;;;;19.27;16.33;;;16.80;99.90;;;;;;5092984;28;20446;-84
2023/07/14 06:24:15;;;;;;;17.92;15.43;;;16.90;99.90;;;;;;5093730;28;20071;-84
2023/07/14 06:26:41;;;;;;;18.25;14.35;;;16.90;99.90;;;;;;5093812;28;20032;-84
2023/07/14 06:29:06;;;;;;;15.70;8.85;;;17.00;99.90;;;;;;5077166;28;20390;-84
2023/07/14 06:31:34;;;;;;;16.38;14.00;;;17.00;99.90;;;;;;5094493;28;20047;-84
2023/07/14 06:33:59;;;;;;;17.33;14.30;;;17.10;99.90;;;;;;5093154;28;20072;-84
2023/07/14 06:36:25;;;;;;;17.52;14.07;;;17.10;99.90;;;;;;5076152;28;20120;-84
2023/07/14 06:38:51;;;;;;;17.00;14.18;;;17.20;99.90;;;;;;5076719;28;20050;-85
2023/07/14 06:41:16;;;;;;;14.52;12.52;;;17.20;99.90;;;;;;5093664;28;20142;-84
2023/07/14 06:43:42;;;;;;;17.33;12.23;;;17.30;99.90;;;;;;5075696;28;20036;-84
2023/07/14 06:46:07;;;;;;;16.42;12.55;;;17.30;99.90;;;;;;5076893;28;20044;-85
2023/07/14 06:48:33;;;;;;;15.95;11.88;;;17.40;99.90;;;;;;5076305;28;20032;-84
2023/07/14 06:50:59;;;;;;;14.68;11.63;;;17.50;99.90;;;;;;5093629;28;20028;-85
2023/07/14 06:53:25;;;;;;;15.35;12.15;;;17.60;99.90;;;;;;5075736;28;20490;-84
2023/07/14 06:55:51;;;;;;;15.35;11.80;;;17.60;99.90;;;;;;5092881;28;20044;-84
2023/07/14 06:58:16;;;;;;;15.82;7.75;;;17.60;99.90;;;;;;5076159;28;20043;-85
2023/07/14 07:00:42;;;;;;;15.65;12.02;;;17.60;99.90;;;;;;5092838;28;20040;-84
2023/07/14 07:03:08;;;;;;;13.07;10.75;;;17.60;99.90;;;;;;5091086;28;20406;-85
2023/07/14 07:05:37;;;;;;;13.70;10.73;;;17.70;99.90;;;;;;5075963;28;20072;-84
2023/07/14 07:08:03;;;;;;;14.82;12.75;;;17.80;99.90;;;;;;5076194;28;20036;-85
2023/07/14 07:10:30;;;;;;;16.58;12.38;;;17.90;99.90;;;;;;5075340;28;20250;-84
2023/07/14 07:12:55;;;;;;;15.20;12.07;;;18.00;99.90;;;;;;5075275;28;20477;-84
2023/07/14 07:15:21;;;;;;;15.77;11.25;;;18.00;99.90;;;;;;5075695;28;20072;-85
2023/07/14 07:17:47;;;;;;;16.35;12.10;;;18.10;99.90;;;;;;5092759;28;20044;-85
2023/07/14 07:20:13;;;;;;;14.68;11.68;;;18.20;99.90;;;;;;5075625;28;20061;-85
2023/07/14 07:22:41;;;;;;;17.10;12.63;;;18.30;99.90;;;;;;5075325;28;20527;-85
2023/07/14 07:25:07;;;;;;;19.02;11.93;;;18.40;99.90;;;;;;5092717;28;20116;-84
2023/07/14 07:27:33;;;;;;;15.80;12.02;;;18.50;99.90;;;;;;5092545;28;20150;-84
2023/07/14 07:30:00;;;;;;;13.30;11.27;;;18.60;99.90;;;;;;5092512;28;20482;-85
2023/07/14 07:32:27;;;;;;;13.98;11.07;;;18.60;99.90;;;;;;5092070;28;20044;-86
2023/07/14 07:34:53;;;;;;;13.60;10.73;;;18.70;99.90;;;;;;5093718;28;20117;-85
2023/07/14 07:37:19;;;;;;;12.65;9.80;;;18.80;99.90;;;;;;5073393;28;20430;-85
2023/07/14 07:39:45;;;;;;;15.85;11.07;;;18.80;99.90;;;;;;5057524;28;20082;-85
2023/07/14 07:42:11;;;;;;;13.95;10.02;;;18.90;99.90;;;;;;5063075;28;20047;-85
2023/07/14 07:44:36;;;;;;;14.60;10.10;;;19.00;99.90;;;;;;5083355;28;20041;-85
2023/07/14 07:47:02;;;;;;;14.88;10.43;;;19.10;99.90;;;;;;5081837;28;20032;-85
2023/07/14 07:49:28;;;;;;;14.82;10.40;;;19.20;99.90;;;;;;5091264;28;20071;-86
2023/07/14 07:51:53;;;;;;;14.75;8.63;;;19.30;99.90;;;;;;5091582;28;20115;-85
2023/07/14 07:54:19;;;;;;;15.00;9.38;;;19.30;99.90;;;;;;5091718;28;20618;-85
2023/07/14 07:56:45;;;;;;;12.32;9.52;;;19.40;99.90;;;;;;5091529;28;20044;-85
2023/07/14 07:59:15;;;;;;;12.60;8.77;;;19.40;99.90;;;;;;5092310;28;20472;-85
2023/07/14 08:01:42;;;;;;;12.05;7.53;;;19.40;99.90;;;;;;5091768;28;20097;-86
2023/07/14 08:04:08;;;;;;;12.55;7.40;;;19.50;99.90;;;;;;5075229;28;20036;-85
2023/07/14 08:06:36;;;;;;;12.25;7.18;;;19.50;99.90;;;;;;5092142;28;20127;-85
2023/07/14 08:09:03;;;;;;;11.50;6.55;;;19.50;99.90;;;;;;5091413;28;20524;-85
2023/07/14 08:11:29;;;;;;;11.85;6.53;;;19.50;99.90;;;;;;5089296;28;20428;-85
2023/07/14 08:13:54;;;;;;;12.32;6.38;;;19.60;99.90;;;;;;5085955;28;20042;-85
2023/07/14 08:16:20;;;;;;;12.02;6.45;;;19.60;99.90;;;;;;5091372;28;20040;-85
2023/07/14 08:18:45;;;;;;;12.68;6.28;;;19.60;99.90;;;;;;5091377;28;20032;-85
2023/07/14 08:21:11;;;;;;;11.20;6.30;;;19.60;99.90;;;;;;5086774;28;20085;-85
2023/07/14 08:23:37;;;;;;;10.60;5.90;;;19.60;99.90;;;;;;5073844;28;20040;-85
2023/07/14 08:26:04;;;;;;;9.45;5.38;;;19.60;99.90;;;;;;5086715;28;20047;-83
2023/07/14 08:28:30;;;;;;;9.07;4.57;;;19.60;99.90;;;;;;5093609;28;20123;-86
2023/07/14 08:31:01;;;;;;;9.95;4.88;;;19.60;99.90;;;;;;5075568;28;20044;-86
2023/07/14 08:33:27;;;;;;;12.50;5.15;;;19.50;99.90;;;;;;5090728;28;20620;-85
2023/07/14 08:35:54;;;;;;;10.88;5.38;;;19.60;99.90;;;;;;5058897;28;20040;-85
2023/07/14 08:38:20;;;;;;;9.23;4.70;;;19.70;99.90;;;;;;5071858;28;20127;-84
2023/07/14 08:40:54;;;;;;;12.27;4.43;;;19.80;99.90;;;;;;5071633;28;20538;-84
2023/07/14 08:43:49;;;;;;;8.45;4.28;;;19.90;99.90;;;;;;5070779;28;20295;-84
2023/07/14 08:46:28;;;;;;;8.85;4.20;;;20.00;99.90;;;;;;5032784;28;20047;-85
2023/07/14 08:48:59;;;;;;;7.72;3.33;;;20.00;99.90;;;;;;5054333;28;20039;-86
2023/07/14 08:51:34;;;;;;;9.20;3.97;;;20.10;99.90;;;;;;5069543;28;20075;-86
2023/07/14 08:54:04;;;;;;;9.32;3.97;;;20.20;99.90;;;;;;5070698;28;20053;-86
2023/07/14 08:56:34;;;;;;;8.80;3.75;;;20.30;99.90;;;;;;5053829;28;20076;-86
2023/07/14 08:59:00;;;;;;;7.53;3.42;;;20.30;99.90;;;;;;5070928;28;20048;-86
2023/07/14 09:01:38;;;;;;;9.45;3.80;;;20.40;99.90;;;;;;5070567;28;20414;-86
2023/07/14 09:04:18;;;;;;;11.75;3.72;;;20.50;99.90;;;;;;5070409;28;20450;-86
2023/07/14 09:06:44;;;;;;;10.88;3.70;;;20.60;99.90;;;;;;5070910;28;20048;-86
2023/07/14 09:09:21;;;;;;;9.13;3.75;;;20.70;99.90;;;;;;5070177;28;20033;-86
2023/07/14 09:12:15;;;;;;;8.75;3.80;;;20.80;99.90;;;;;;5069787;28;20147;-86
2023/07/14 09:15:03;;;;;;;8.95;3.63;;;20.90;99.90;;;;;;5070208;28;20044;-86
2023/07/14 09:17:50;;;;;;;7.63;3.25;;;20.90;99.90;;;;;;5070368;28;20110;-86
2023/07/14 09:20:48;;;;;;;8.00;3.17;;;20.90;99.90;;;;;;5053760;28;20040;-86
2023/07/14 09:23:57;;;;;;;7.78;3.13;;;20.90;99.80;;;;;;5064854;28;20048;-86
2023/07/14 09:26:32;;;;;;;8.98;3.70;;;20.80;99.10;;;;;;5070150;28;20040;-86
2023/07/14 09:29:07;;;;;;;8.35;3.38;;;20.80;99.70;;;;;;5070295;28;20047;-86
2023/07/14 09:32:10;;;;;;;8.85;3.67;;;20.80;99.00;;;;;;5053202;28;20120;-86
2023/07/14 09:34:40;;;;;;;9.63;3.60;;;21.00;99.90;;;;;;5069640;28;20036;-85
2023/07/14 09:37:15;;;;;;;8.60;3.13;;;21.00;98.90;;;;;;5053098;28;20033;-86
2023/07/14 09:39:43;;;;;;;8.73;3.28;;;20.90;97.30;;;;;;5069653;28;20025;-86
2023/07/14 09:42:24;;;;;;;10.02;3.67;;;20.70;97.40;;;;;;5076615;28;20506;-86
2023/07/14 09:44:49;;;;;;;8.43;3.22;;;20.70;99.70;;;;;;5089882;28;20036;-86
2023/07/14 09:47:17;;;;;;;8.07;3.17;;;20.90;99.80;;;;;;5089253;28;20363;-85
2023/07/14 09:49:48;;;;;;;12.27;3.72;;;20.90;98.40;;;;;;5066732;28;20036;-84
2023/07/14 09:52:18;;;;;;;8.25;3.50;;;20.80;96.90;;;;;;5077169;28;20036;-85
2023/07/14 09:54:59;;;;;;;9.00;3.22;;;20.80;98.40;;;;;;5079965;28;20590;-85
2023/07/14 09:57:33;;;;;;;8.65;3.42;;;20.80;98.30;;;;;;5058899;28;20036;-85
2023/07/14 10:00:13;;;;;;;7.88;3.80;;;20.80;98.10;;;;;;5066574;28;20045;-85
2023/07/14 10:02:39;;;;;;;8.52;3.75;;;21.10;99.00;;;;;;5076650;28;20047;-86
2023/07/14 10:05:41;;;;;;;8.68;3.63;;;21.10;97.60;;;;;;5079886;28;20036;-85
2023/07/14 10:08:27;;;;;;;9.05;3.35;;;21.10;95.90;;;;;;5067540;28;20541;-86
2023/07/14 10:10:59;;;;;;;8.90;4.03;;;20.90;96.30;;;;;;5063740;28;20119;-85
2023/07/14 10:13:27;;;;;;;8.98;3.42;;;20.90;97.90;;;;;;5077170;28;20398;-85
2023/07/14 10:15:57;;;;;;;8.18;3.42;;;20.90;99.70;;;;;;5080247;28;20393;-85
2023/07/14 10:18:24;;;;;;;10.30;3.50;;;20.90;99.90;;;;;;5061966;28;20535;-85
2023/07/14 10:21:06;;;;;;;9.57;3.40;;;20.80;99.90;;;;;;5062528;28;20043;-85
2023/07/14 10:23:32;;;;;;;9.13;4.10;;;20.80;98.60;;;;;;5079996;28;20033;-85
2023/07/14 10:25:59;;;;;;;7.47;3.45;;;21.00;99.90;;;;;;5061565;28;20033;-85
2023/07/14 10:28:28;;;;;;;10.52;3.67;;;21.10;99.10;;;;;;5079395;28;20036;-85
2023/07/14 10:31:08;;;;;;;8.18;3.85;;;21.20;97.10;;;;;;5080844;28;20397;-85
2023/07/14 10:33:58;;;;;;;9.05;3.20;;;21.30;99.00;;;;;;5063333;28;20032;-86
2023/07/14 10:36:34;;;;;;;8.00;3.30;;;21.40;97.10;;;;;;5079438;28;20042;-86
2023/07/14 10:39:09;;;;;;;7.57;3.55;;;21.40;94.20;;;;;;5077279;28;20040;-86
2023/07/14 10:41:39;;;;;;;8.30;3.40;;;21.30;93.90;;;;;;5081975;28;20487;-86
2023/07/14 10:44:27;;;;;;;9.07;3.50;;;21.30;94.10;;;;;;5080790;28;20036;-86
2023/07/14 10:46:58;;;;;;;7.05;3.22;;;21.40;94.80;;;;;;5066826;28;20097;-86
2023/07/14 10:49:45;;;;;;;8.55;3.45;;;21.40;94.60;;;;;;5082964;28;20037;-86
2023/07/14 10:52:37;;;;;;;7.82;3.10;;;21.50;94.20;;;;;;5082925;28;20036;-87
2023/07/14 10:55:27;;;;;;;7.40;2.90;;;21.60;94.10;;;;;;5075879;28;20051;-87
2023/07/14 10:57:58;;;;;;;8.88;3.35;;;21.80;92.90;;;;;;5058844;28;20050;-87
2023/07/14 11:00:40;;;;;;;6.57;2.83;;;22.00;91.90;;;;;;5066224;28;20483;-87
2023/07/14 11:03:27;;;;;;;7.70;3.00;;;22.10;91.30;;;;;;5065480;28;20037;-86
2023/07/14 11:06:10;;;;;;;7.50;3.10;;;22.20;90.70;;;;;;5065444;28;20052;-86
2023/07/14 11:08:36;;;;;;;8.23;3.20;;;22.30;90.90;;;;;;5064393;28;20479;-86
2023/07/14 11:11:42;;;;;;;7.38;3.22;;;22.20;89.70;;;;;;5084864;28;20490;-87
2023/07/14 11:14:30;;;;;;;7.50;3.05;;;22.10;87.90;;;;;;5084917;28;20062;-86
2023/07/14 11:17:14;;;;;;;8.05;3.10;;;22.00;89.90;;;;;;5083365;28;20040;-87
2023/07/14 11:19:58;;;;;;;8.05;3.40;;;22.00;89.50;;;;;;5084353;28;20462;-87
2023/07/14 11:22:26;;;;;;;8.50;3.33;;;22.10;89.80;;;;;;5081765;28;20402;-86
2023/07/14 11:25:05;;;;;;;8.65;3.55;;;22.20;90.00;;;;;;5082032;28;20050;-86
2023/07/14 11:27:36;;;;;;;10.73;3.83;;;22.20;90.00;;;;;;5083155;28;20032;-86
2023/07/14 11:30:24;;;;;;;9.35;3.42;;;22.10;88.90;;;;;;5082106;28;20124;-86
2023/07/14 11:33:04;;;;;;;8.35;3.63;;;22.00;87.70;;;;;;5065599;28;20433;-87
2023/07/14 11:35:34;;;;;;;8.75;3.70;;;21.80;87.30;;;;;;5082503;28;20084;-86
2023/07/14 11:38:00;;;;;;;8.13;3.10;;;21.80;90.50;;;;;;5066962;28;20526;-86
2023/07/14 11:40:27;;;;;;;9.05;3.75;;;21.80;89.20;;;;;;5082524;28;20040;-86
2023/07/14 11:42:59;;;;;;;8.75;3.80;;;21.70;89.30;;;;;;5062930;28;20036;-87
2023/07/14 11:45:28;;;;;;;9.57;3.45;;;21.70;90.00;;;;;;5064843;28;20033;-86
2023/07/14 11:47:59;;;;;;;7.60;3.20;;;21.70;89.60;;;;;;5080992;28;20494;-86
2023/07/14 11:50:30;;;;;;;8.93;3.45;;;21.70;90.40;;;;;;5064463;28;20028;-86
2023/07/14 11:52:59;;;;;;;8.02;3.15;;;21.80;91.50;;;;;;5083935;28;20063;-86
2023/07/14 11:55:27;;;;;;;7.65;3.30;;;22.00;90.20;;;;;;5081736;28;20048;-86
2023/07/14 11:58:21;;;;;;;8.27;3.30;;;22.10;87.50;;;;;;5083527;28;20093;-86
2023/07/14 12:00:52;;;;;;;7.53;3.30;;;22.30;90.10;;;;;;5075617;28;20056;-86
2023/07/14 12:03:33;;;;;;;8.38;3.50;;;22.30;86.00;;;;;;5092086;28;20040;-86
2023/07/14 12:06:24;;;;;;;7.65;3.10;;;22.40;86.80;;;;;;5075396;28;20040;-86
2023/07/14 12:09:05;;;;;;;9.35;3.50;;;22.40;83.40;;;;;;5090004;28;20036;-86
2023/07/14 12:11:40;;;;;;;8.75;3.30;;;22.50;84.40;;;;;;5088380;28;20548;-87
2023/07/14 12:14:29;;;;;;;8.73;3.50;;;22.60;83.00;;;;;;5088153;28;20044;-87
2023/07/14 12:16:57;;;;;;;7.10;3.03;;;22.60;83.10;;;;;;5088082;28;20397;-87
2023/07/14 12:19:31;;;;;;;7.43;2.88;;;22.70;82.50;;;;;;5071363;28;20082;-87
2023/07/14 12:22:00;;;;;;;6.97;2.70;;;22.90;83.10;;;;;;5087752;28;20044;-86
2023/07/14 12:24:33;;;;;;;6.95;2.75;;;23.00;81.50;;;;;;5088538;28;20158;-87
2023/07/14 12:27:23;;;;;;;6.85;2.75;;;23.00;78.90;;;;;;5088683;28;20402;-87
2023/07/14 12:30:03;;;;;;;7.22;3.22;;;23.00;78.20;;;;;;5088667;28;20102;-87
2023/07/14 12:32:28;;;;;;;7.80;3.08;;;22.90;78.70;;;;;;5087810;28;20044;-88
2023/07/14 12:34:56;;;;;;;6.45;2.60;;;22.90;77.90;;;;;;5072136;28;20097;-87
2023/07/14 12:37:23;;;;;;;6.28;2.70;;;22.80;76.80;;;;;;5088458;28;20039;-87
2023/07/14 12:39:51;;;;;;;6.95;2.95;;;22.70;78.20;;;;;;5088043;28;20048;-87
2023/07/14 12:42:18;;;;;;;8.32;2.80;;;22.70;78.00;;;;;;5087655;28;20051;-87
2023/07/14 12:44:44;;;;;;;7.28;2.90;;;22.60;78.50;;;;;;5087985;28;20036;-86
2023/07/14 12:47:17;;;;;;;6.45;2.78;;;22.60;78.10;;;;;;5071416;28;20051;-86
2023/07/14 12:49:52;;;;;;;7.95;2.88;;;22.60;78.30;;;;;;5087952;28;20660;-86
2023/07/14 12:52:28;;;;;;;6.97;2.90;;;22.70;79.30;;;;;;5070575;28;20044;-86